Relatório Geral Feminino
Coloc. Num. Atleta Idade Sexo Fx.Et. Cl.Fx.Et. Tempo Equipe
1 2860 MARILY DOS SANTOS 41 F F4044 - 01:36:36 FERBASA
2 2569 GRACIETE MOREIRA CARNEIRO SANTANA 39 F F3539 - 01:37:12 ASSOCIACAO DE ATLETISMO SIMOES
3 2899 MARIZETE MOREIRA DOS SANTOS 44 F F4044 - 01:38:26 JESUS TA VOLTANDO
4 2075 ADRIANA TEODOSIO GONÇALVES 28 F F2529 - 01:39:09 EU DO ESPORTE
5 3004 LUANA DE JESUS SOUZA 29 F F2529 - 01:44:33 GAT (GRUPO DE AMIGOS QUE TREIN
6 3355 BETINHA DANTAS 41 F F4044 1 01:45:56 GCM GUARUJÁ/ EDUCA GUARUJÁ
7 2887 ROZIRENE FERREIRA MORAES 46 F F4549 - 01:47:16 COYIOTE RUN
8 2212 ADRIANA DOS SANTOS LOPES 39 F F3539 - 01:49:25 REAB/ GERALDOFILHO RUNCLUB
9 2312 SIMONE ALCANTARA DOS SANTOS 36 F F3539 1 01:51:37 AARR
10 3147 MARIA CLEUDIZE BOMFIM DA SILVA 45 F F4549 - 01:51:48 JESUS ESTÁ VOLTANDO
11 3082 CLAUDICE DE LIRA SANTOS 38 F F3539 2 01:52:23 CARCARA ARAPIRACA RUNNING/Z8AC
12 3384 Fernanda Carvalho Reis Cordeiro 29 F F2529 - 01:53:13 .
13 2421 ADELVANIA BERNARDO CORREIA (BOBÓ) 42 F F4044 - 01:53:47 APA
14 3331 SIMONE DOS SANTOS 30 F F3034 - 02:01:19 WRUN
15 2268 TELMA REGINA BRITO SANTOS 56 F F5559 - 02:01:31 MORONE
16 2218 MARIA ELIZANGELA REIS 41 F F4044 - 02:02:38 PÉ NO CHÃO
17 385 GIOVANA SANTOS PEREIRA 47 F F4549 1 02:03:01 .
18 2506 MARIA AUXILIADORA SANTOS 50 F F5054 - 02:03:08 DIVAS /ESTRE
19 2458 JACIRA ESTRELA DE ALMEIDA 46 F F4549 2 02:05:38 GRUPO CORRIDAS BAHIA
20 2948 DAYSE MEIRA MONTENEGRO MISERANI 52 F F5054 1 02:06:06 MAXIMUM SPORTS
21 3350 DANIELLE MARIANO 38 F F3539 3 02:06:18 UNIC RUNNING
22 3100 ISABELA TAVARES DE GÓIS 38 F F3539 4 02:08:09 MEDRUNNERS
23 2288 ARIANE SANTIAGO 38 F F3539 5 02:08:10 RENATO MAIA
24 3238 LUCY - MARIA LUCIVALDA SANTOS 29 F F2529 1 02:09:14 SESC
25 3094 ALINE CRISTINA ARAÚJO COSTA 40 F F4044 2 02:09:37 .
26 2488 MARCIA CONCEIÇÃO 42 F F4044 3 02:10:29 PÉ NO CHÃO
27 2416 RIVANILDA BARRETO DA CRUZ 49 F F4549 3 02:11:17 MAIS SABOR MARMITARIA
28 425 MARIA LÍDIA OLIVEIRA CERQUEIRA 43 F F4044 4 02:12:08 SAÚDE E MOVIMENTO
29 2039 IEDA A. SOARES 42 F F4044 5 02:12:12 RUSSO
30 2874 KARLA ISABELLA KARLA ISABELLA 47 F F4549 4 02:12:44 ERICK ALMEIDA TEAM
31 2653 VANIA SOUZA DA SILVA 48 F F4549 5 02:12:51 CORRIDAS BAHIA
32 2107 JOSENITA SANTOS 42 F F4044 6 02:13:18 PE NO CHAO
33 2565 NAIARA SANTANA SOUZA TAVARES 38 F F3539 6 02:13:34 .
34 3215 MARIA MARLEIDE NASCIMENTO SANTOS 44 F F4044 7 02:14:34 WRUN
35 3142 DAMARIS CARDOSO DE OLIVEIRA 49 F F4549 6 02:14:40 AGRORUN
36 3373 DILMA-MARIA DILMA DO NASCIMENTO MEN 67 F F6569 - 02:14:44 EQUIPE PÉ NO CHÃO
37 3330 SILVIA MARIA SHUNK 33 F F3034 1 02:14:47 WRUN
38 2752 PAULA CECÍLIA SOARES PRIMO FERREIRA 40 F F4044 8 02:15:03 LIVIA TEAM
39 2362 RILZA DE JESUS PADILHA 43 F F4044 9 02:16:02 RENATO MAIA
40 2158 MARIA ALICE DE JESUS SANTANA 60 F F6064 1 02:16:20 EQUIPE TORNADO
41 3217 DÉBORA GLEIDE DOS SANTOS LEMOS 42 F F4044 10 02:16:33 BRUNO OLIVEIRA
42 2006 JOSEFA CRISTINA BATISTA SANTANA 38 F F3539 7 02:16:42 TURMA DA CORRIDA BATE E VOLTA
43 2582 GILCENIR RAMOS DOS SANTOS 50 F F5054 2 02:17:05 LIVIATEAM
44 2287 AUGUSTINHA LOPES DOS SANTOS 60 F F6064 2 02:17:13 .
45 2465 ROSIMARI DE JESUS CARVALHO 45 F F4549 7 02:17:19 .
46 2459 ELIENE PEREIRA PINTO 41 F F4044 11 02:17:27 GRUPO CORRIDAS BAHIA
47 3263 CINTIA VALÉRIA VASCONCELOS 40 F F4044 12 02:17:28 TREINANDO ONLINE
48 3050 MIRIAN TEIXEIRA DA SILVA 47 F F4549 8 02:17:29 GNC NIXON FERNANDES
49 2739 ELISANGELA MARIA LIMA 42 F F4044 13 02:17:32 ATLETAS DA SERRA
50 2308 CELIA LIMA DA SILVA SANTOS 51 F F5054 3 02:17:34 NIXON FERNANDES
51 3192 JÉSSICA SANTOS LISBOA 28 F F2529 2 02:17:49 GERALDO FILHO
52 3287 EVELINE DANTAS LIMA 37 F F3539 8 02:18:30 PEDRO HENRIQUE COACH
53 2337 LUANA PRISCILLA DE CARVALHO MENEZES 38 F F3539 9 02:18:37 FLÁVIA REZENDE
54 3196 ABILENE SUILANIA DOS SANTOS 37 F F3539 - 02:18:55 .
55 995 LUCIANA RAMOS 45 F F4549 9 02:18:56 EDVALDO BEZERRA TEAM
56 2964 PATRICIA KAPRITCHKOFF MENDONCA 42 F F4044 - 02:19:15 ADEMIR PAULINO
57 2826 MARCIA CRISTINA SOBRAL DA SILVA 53 F F5054 4 02:19:38 MENU DO CORPO
58 2756 SILVANA DOS SANTOS 54 F F5054 5 02:20:30 GERALDO FILHO RUN CLUB
59 2976 ILZA CARLA DO NASCIMENTO SANTOS 35 F F3539 10 02:20:50 CLUBE GMA
60 2232 RISIANEY FONSECA PRUDENTE 40 F F4044 14 02:21:01 JYMMYS LOPES TEAM
61 2813 NENA LIMA 46 F F4549 10 02:21:39 JYMMYS LOPES
62 2002 JOSENEIDE NUNES DOS SANTOS 42 F F4044 - 02:22:12 .
63 3189 JOSIANE OLIVEIRA SANTOS 38 F F3539 - 02:22:24 PEAKS
64 2111 MARIA JOSE TELES MELO COUTINHO 56 F F5559 - 02:22:28 YSTEAM
65 2648 THAYS CÉSAR GÓIS 39 F F3539 11 02:22:31 RENATO MAIA
66 3249 LENDI - MARIA DE LOURDES MENESES DO 45 F F4549 11 02:23:28 ACADEMIA MAXIMUS
67 2757 ANGELA PELOSI 53 F F5054 6 02:23:45 CORPUS VITALLE
68 2276 SIRLENE RABELO 50 F F5054 7 02:24:03 NOVA ESPERANÇA/POÇO VERDE - SE
69 2127 TEREZA DE JESUS SILVA 41 F F4044 15 02:24:07 EQUIPE PE NO CHAO
70 2905 SANDRA REGINA RODRIGUES DE AZEVEDO 51 F F5054 8 02:24:16 GERALDO FILHO RUN CLUB
71 2462 CLAUDIANE ALVES DE SOUSA CARVALHO 46 F F4549 12 02:24:23 GRUPO CORRIDAS BAHIA
72 2980 LUIZA BARREIROS 47 F F4549 13 02:24:40 CORREDORES DA GRUTA/FABRIZIO B
73 2987 IVI GONÇALVES SOARES SANTOS SERRA 44 F F4044 16 02:24:50 LIVIATEAM
74 2539 ANDREA CINTHIAN G DA COSTA 44 F F4044 17 02:25:37 RENATO MAIA
75 2156 FABÍOLA SANTANA ALBUQUERQUE 40 F F4044 18 02:26:01 LIVIA TEAM
76 2289 VALNIZIA PEREIRA DA MATA 59 F F5559 1 02:26:14 GIVAS MULTTI SOORT
77 2701 AÍDA KÁTIA ROCHA SANTOS 52 F F5054 9 02:26:22 SALADA DE FRUTAS
78 2618 GIREI DE SANTOS ALVES DE SOUZA 45 F F4549 14 02:27:15 .
79 2643 JACIRA MIRANDA DE ANDRADE 46 F F4549 15 02:27:15 PAQUITAS
80 3063 SANDRA VIRGÍNIA SANTOS ARAÚJO 38 F F3539 12 02:27:20 AMIGOS RUNNERS
81 2735 FRANCILENE MELO DE OLIVEIRA 31 F F3034 2 02:27:23 EQUIPE LÁ VEM UM
82 2709 LEILANY SUELLE DOS SANTOS VIANA 34 F F3034 3 02:27:35 DT RUN
83 2977 ILA MENEZES AMARANTE 35 F F3539 13 02:28:17 JAIME MADUREIRA
84 3353 VERÔNICA MARIA PEREIRA BERNARDINO 37 F F3539 14 02:28:32 PRINCESAS QUE CORREM
85 2575 RADMILA PEREIRA DA SILVA 29 F F2529 3 02:28:35 GERALDO FILHO RUNCLUB
86 3039 DANIELE DE MORAES FARIAS VALENTE 46 F F4549 16 02:28:40 RT ASSESSORIA
87 2186 TAMYRES GUIMARÃES LIMA GOMES 32 F F3034 4 02:28:48 .
88 3173 SILVANA ALVES DE SOUZA 45 F F4549 17 02:28:58 RENATO MAIA
89 437 SELMA SANTOS DA SILVA 43 F F4044 19 02:29:13 CORREDORA DE ARACAJU
90 3246 IVANA DE MATOS CAMPOS FARIAS 39 F F3539 15 02:29:24 WRUN
91 3110 LUCIVANIA SILVA SANTOS 36 F F3539 16 02:30:00 AMIGOS RUNNERS
92 2166 VANUSA LINS ALVES BATISTA 51 F F5054 10 02:30:23 CORREDORES AMIGOS DE SALVADOR
93 2995 JOSENEIDE CALDAS SIMAS 34 F F3034 5 02:31:53 FANTASMAS RUNNERS
94 2401 ANNA MARIA FONSECA ALBUQUERQUE 25 F F2529 4 02:32:33 JAIME MADUREIRA
95 2992 GISÉLIA SOUZA DE OLIVEIRA 59 F F5559 2 02:32:45 RT ASSESSORIA
96 3294 HORTÊNCIA REIS DO NASCIMENTO 26 F F2529 5 02:32:56 CLUBE DE CORRIDA UFS
97 3191 MARIA LIONÍZIA SANTOS ANDRADE 44 F F4044 20 02:32:58 JYMIS LOPES
98 2950 SUZANA MARGARIDA 48 F F4549 18 02:33:21 PEFORMANCE ASSESSORIA
99 2381 PALOMA MERCES FERNANDES 41 F F4044 21 02:33:57 CORPUS VITALLE
100 3234 ELIZABETE DOS SANTOS LIMA 52 F F5054 11 02:34:08 WRUN
101 2074 MARIA CRISTINA NUNES JATOBÁ 52 F F5054 12 02:34:16 CARCARÁ
102 2636 JARDIM JULIANA 37 F F3539 17 02:35:17 RENATO MAIA
103 2469 NIDIANE MAIA DO NASCIMENTO 37 F F3539 18 02:35:18 .
104 2221 THIANE MACÊDO 35 F F3539 19 02:35:29 ACADEMIA ENERGIA DO CORPO
105 2138 MANOELA MENDESVIEIRA DE OLIVEIRA 38 F F3539 20 02:35:49 PEAKS ARACAJU
106 2557 ANA CAROLINA ALMEIDA SACRAMENTO DO 39 F F3539 21 02:35:52 YSTEAM
107 2827 JEANE OLIVEIRA MAMONA 43 F F4044 22 02:35:53 NOVA GERAÇÃO/TARTARUGAS DO ASF
108 3129 REIJANE FERREIRA DA COSTA 52 F F5054 13 02:35:53 CORRIDAS BAHIA
109 5453 AMANDA NAIANA DOS SANTOS BARBOSA 31 F F3034 6 02:36:03 RH PERSONAL
110 2293 CINTIA NOLE GOMES BRANDAO 45 F F4549 19 02:36:16 ZONA ALVO
111 2961 HORNELIA FERREIRA DOS SANTOS 43 F F4044 23 02:36:29 LIVIA TEAM
112 2816 ADNETE CASSIMIRO ESTEVES SANTOS 36 F F3539 22 02:36:30 .
113 2579 GREICY FEITOSA 39 F F3539 23 02:36:32 CARCARÁ ARAPIRACA RUNNING
114 3433 NILZA DE FATIMA GUISSONI 58 F F5559 3 02:36:34 .
115 2853 ROSANA SANTOS DA SILVA 42 F F4044 24 02:37:08 JABUTIANA RUNNERS
116 2383 ISABELLA SOUZA CORONA 37 F F3539 24 02:37:16 GERALDO FILHO
117 3305 SHIRLEY SANTOS TELES ROCHA 40 F F4044 25 02:37:16 LIVIA TEAM
118 2734 FIRLIANE MELO DE OLIVEIRA 30 F F3034 7 02:37:19 EQUIPE LÁ VEM UM
119 3347 ENNYNHA - MARIA JOSIENE DOS SANTOS 38 F F3539 25 02:37:34 SESC
120 2973 MIRENA OLIVEIRA FERREIRA LINS 40 F F4044 26 02:38:06 ERICK ALMEIDA TEAM
121 2845 MARIA ANTONIA MOTA SANTOS 46 F F4549 20 02:38:29 .
122 3319 MARIA JOSE DE MOURA BARROS 52 F F5054 14 02:39:53 DIVAS
123 3065 TAMARA MUHLSTEDT 32 F F3034 8 02:40:27 CLUBE GMA
124 2016 SABRINA RODRIGUES VIANA 26 F F2529 6 02:40:42 CLUB RUM CELSO FERNANDES
125 3344 ELIANE SANTOS DO NASCIMENTO 25 F F2529 7 02:40:49 CLUBE DE CORRIDA UFS/ SEMENTES
126 2258 ROSA MARIA FRAGA SANTOS 40 F F4044 27 02:41:21 PARTICULAR
127 2210 ZULMA OLMEDO MENDEZ 38 F F3539 26 02:41:23 DIEGO TORRES
128 3113 RAIMUNDA DORIA SANTOS 47 F F4549 21 02:41:35 AMIGOS RUNNERS
129 2967 JOIRA ALVES DE LACERDA SANTOS ROLEM 35 F F3539 27 02:41:52 #THADEUMELOTEAM
130 3258 MARIA EDVÂNIA COSTA PEIXOTO 46 F F4549 22 02:41:52 CELSO FERNANDES
131 3199 KEYLA RIANY SILVA 33 F F3034 9 02:41:56 DIVAS QUE CORREM
132 2825 ANDREZZA PRISCILA OLIVEIRA BARBARIN 36 F F3539 28 02:41:57 MEGA FORMA ACADEMIA
133 3388 ANA PAULA BURITI GOMES DOS SANTOS F 39 F F3539 29 02:42:07 SAÚDE E MOVIMENTO
134 818 ALESSANDRA LIMA OLIVEIRA 36 F F3539 30 02:42:13 SAÚDE & MOVIMENTO
135 3043 LUANA LUARA SANTOS NUNES 34 F F3034 10 02:42:23 LÍVIA TEAM
136 2283 DANIELLE ALINE DOS SANTOS 27 F F2529 8 02:42:30 CLUB RIT
137 5392 ALINE DE JESUS SANTOS 38 F F3539 31 02:42:31 LUMIÈRE CLUBE DE CORRIDA
138 3162 HELGA SOUZA BARRETO UCHÔA 48 F F4549 23 02:42:39 JAIME MADUREIRA
139 2807 CLAUDIA DANIELA DE FREITAS SILVEIRA 42 F F4044 28 02:43:21 GERALDO FILHO RUN CLUB
140 2255 MARIA DE FATIMA SANTOS ANDRADE 57 F F5559 4 02:43:25 AVENTUREIROS DE SOCORRO
141 2540 LILIA LIMA 39 F F3539 32 02:43:48 THADEUMELOTEAM
142 2986 DARIANE ALVES DE ANDTADE 32 F F3034 11 02:43:49 THADEU MELO
143 2732 FABIOLA TEIXEIRA DOS SANTOS 46 F F4549 24 02:44:06 DTRUN
144 5886 INES CRISTINA CAMPOS 60 F F6064 3 02:44:22 JAIME MADUREIRA
145 2617 CYBELLE CRUZ 46 F F4549 25 02:44:34 PÉ NO CÃO
146 2149 VANESSA SILVEIRA SOBRAL BARRETO 39 F F3539 33 02:45:10 LÍVIA TEAM
147 2890 MARIANA SANTANA GONÇALVES 40 F F4044 29 02:45:11 ERICK ALMEIDA
148 2925 MARIANA DE OLIVEIRA SOARES 31 F F3034 12 02:45:21 LIVIA TEAM
149 3198 TEREZA CECÍLIA SOBRAL CARVALHO 34 F F3034 13 02:45:50 WRUN
150 2015 LUANA COSTA NASCIMENTO 33 F F3034 14 02:45:56 JAIME MADUREIRA NOSSA RUN
151 2751 KÁTIA SIRLENE AGUIAR DE ANDRADE 52 F F5054 15 02:45:56 JAIME MADUREIRA NOSSA RUN
152 3170 JULIANA LIRA SILVA 35 F F3539 34 02:46:01 CARCARÁ/Z8 ACESSORIA
153 3279 ALMERINDA SILVA BARRETO 40 F F4044 30 02:46:04 NATIVA RUNNERS
154 2944 VIVIANE BARBOSA DE MELO TORRES 39 F F3539 35 02:46:34 THADEU TEAM
155 2916 MARIA SANTANA DE OLIVEIRA 46 F F4549 26 02:46:39 SESC
156 3227 ELIZABETE GOMES 47 F F4549 27 02:46:39 ELIZABETE GOMES
157 2354 (PEPPER) DAMARIS RIBEIRO DOS ANJOS 41 F F4044 31 02:47:42 CLUBE CORRIDA GUARDA MUNICIPAL
158 2452 JOICE CORREIA DOS SANTOS TIRONE 36 F F3539 36 02:48:05 .
159 2675 ROSEANE PEREIRA DOS SANTOS 37 F F3539 37 02:48:05 JAIME MADUREIRA
160 2020 MÉRCIA CRISTINA SANTANA MOURA DE CA 40 F F4044 32 02:48:09 CORRER PRA COMER
161 2171 MATILDE SANTANA MOURA SILVA 62 F F6064 - 02:48:09 .
162 2551 ANA SUELY FARIA SOUTO TELES 57 F F5559 5 02:48:15 ZONA ALVO
163 2889 LUANNA SANTOS SANTANA 37 F F3539 38 02:48:19 HENRIQUE FREITAS
164 3058 ANDREZA MOTA DE OLIVEIRA ANDRADE 32 F F3034 15 02:48:21 JYMMYS LOPES TEAM
165 2077 PRISCILA B. DE BARRO CARVALHO 40 F F4044 33 02:48:23 ZONA ALVO
166 2808 LILIAN MARCIA RODRIGUES OLIVEIRA 50 F F5054 16 02:48:34 ZONA ALVO
167 3349 KLEISY TATIANA CORREIA ALVES DIAS 39 F F3539 39 02:48:34 LIVIA TEAM
168 2286 ADRIELE NASCIMENTO SANTOS 27 F F2529 9 02:48:45 .
169 2409 JOSEFA MARIA DE JESUS 47 F F4549 28 02:48:55 GRUPO DE CORRIDA NIXON FERNAND
170 2468 MARIA IVONETE DA SIVA 44 F F4044 34 02:49:03 PÉ NO CHÃO
171 2722 ANA ANGÉLICA MENDONÇA COSTA 47 F F4549 29 02:49:31 PÉ NO CHÃO
172 2405 ROBERTA BILITÁRIO 42 F F4044 35 02:49:54 TRIAÇÃO
173 3357 REJANE CARVALHO GIL FREIRE 39 F F3539 40 02:49:59 THADEUMELOTEAM
174 2170 MARIA DO CARMO CRUZ DA HORA 61 F F6064 - 02:50:37 SAGRADA FAMILIA
175 3240 NATY - NATÁLIA CAROLINA DOS SANTOS 33 F F3034 16 02:50:50 BRUNO OLIVEIRA / DIVAS QUE COR
176 3165 MARTINELLI PAIXAO 36 F F3539 41 02:51:22 THADEU MELO
177 3132 ADRIANA DUARTE LIMA DA SILVA 49 F F4549 30 02:51:37 ZONA ALVO
178 2598 MARLENE SANTOS DA SILVA 52 F F5054 17 02:51:46 EQUIPE FILHOS DO VENTO
179 2686 JANE CARLA DE CERQUEIRA 43 F F4044 36 02:51:46 PANTERAS E TIGRES RUNNERS
180 2712 THAISE RUBENY DE JESUS SOUZA 31 F F3034 17 02:52:01 NATIVA RUNNERS
181 23 MARIA DE FATIMA NASCIMENTO AGUIAR 44 F F4044 37 02:52:03 GLAUCORUN
182 3333 AMANDA RIOS 29 F F2529 10 02:52:25 CLUBE DE CORRIDA DA UFS
183 2929 ANA PAULA DIAS DA SILVA 33 F F3034 18 02:52:30 CLUBE DE CORRIDA ACADEMIA MEGA
184 2332 MONIQUE 26 F F2529 11 02:52:46 PANTERAS E TIGRES RUNNERS
185 2574 ANA CARLA DE OLIVEIRA 34 F F3034 19 02:52:58 CLUBE DE CORRIDA UFS
186 2392 JAILMA SOARES DA SILVA 41 F F4044 38 02:53:25 FUZI FITNESS ACADEMIA
187 2426 SIMONE MATOS DOS SANTOS 35 F F3539 42 02:53:35 CORREDORES DE ARACAJU
188 2121 IZABELLA GUIMARAES SOUZA 29 F F2529 12 02:54:11 CLUBE DE CORRIDA DA BELLA
189 3252 CARINA MARRI ALVES SANTOS 35 F F3539 43 02:54:56 .
190 2251 HELENICE DOS SANTOSSILVA 51 F F5054 18 02:55:00 JABUTIANA RUNNERES
191 2832 ESTEFANI MELO MARTINS 31 F F3034 20 02:55:15 GERALDO RUN CLUBE
192 2691 TATIANA OLIVEIRA LIMA 41 F F4044 39 02:56:06 THADEU MELO TEAM
193 3083 ANA JUVANY NUNES 53 F F5054 19 02:56:13 MOICANAS
194 2759 CRISTIANA FERREIRA LYRIO XIMENES 55 F F5559 6 02:56:40 CORPUS VITALLE
195 3099 CHRISTIANE RABELO BRITTO 44 F F4044 40 02:56:50 LÍVIA TEAM
196 3096 MARINOÉ GONZAGA DA SILVA 49 F F4549 31 02:57:02 AGRORUN
197 2651 MARIA LUISA DUARTE 48 F F4549 32 02:57:13 LÍVIA TEMA
198 2119 DEISE RUTE ANDRADE DA SILVA 56 F F5559 7 02:57:14 JAIME MADUREIRA
199 2417 DANIELE BACELLAR 40 F F4044 41 02:57:40 COACH GUTO BACELLAR - ACESSORI
200 2067 ANNE CAROLINE SANTOS 36 F F3539 44 02:58:15 GERALDO FILHO RUN CLUB
201 2216 VERONICA TORRES 39 F F3539 45 02:58:53 TORNADO
202 3274 VIRGINIA VENCESLAU COSTA 41 F F4044 42 02:58:56 WRUN
203 2968 URSULA COSTA BURGOS 45 F F4549 33 02:59:01 LÍVIA TEAM
204 2436 HELOISA HELENA RODRIGUES DOS SANTOS 46 F F4549 34 02:59:46 PÉ NO CHÃO
205 2699 DUCEBEMTEIR NERY EMILIO 39 F F3539 46 02:59:46 PÉ NO CHÃO
206 2782 RITA MARIA DA SILVA NARCIZO 51 F F5054 20 02:59:46 EQUIPE PE NO CHÃO
207 9 ANDREZA HARDMAN 43 F F4044 43 02:59:59 EDVALDO BEZERRA
208 2673 MARIA APARECIDA DOS SANTOS 53 F F5054 21 03:00:22 MOICANA
209 2196 GILVANIA CAVALCANTE 57 F F5559 8 03:00:38 TARSO MATOS ASSESSORIA
210 3282 JANE KARIN BRITO SANTOS 41 F F4044 44 03:00:48 .
211 2360 MARILEIDE S. R. SANTIAGO 45 F F4549 35 03:01:04 GRUPO DE CORRIDA NIXON FERNAND
212 3348 LARISSA MATOS DE ARAUJO 40 F F4044 45 03:01:51 LIVIA TEAM
213 3354 MARIA DE LURDES TELES 53 F F5054 22 03:02:14 EDUCA GUARUJÁ
214 2676 MARISTELA PEIXOTO SANTOS DE LIMA 61 F F6064 4 03:02:15 A/G-2011
215 2512 KATIANE SILVAVASCONCELOS VIEIRA 40 F F4044 46 03:02:34 EU1CORREDOR
216 3120 ADEILVA RODRIGUES VALENÇA 37 F F3539 47 03:03:51 THADEU MELO TEAM
217 2631 LAIS CAMPOS OLIVEIRA SANTOS 41 F F4044 47 03:04:28 CORPUS VITALLE
218 3298 NAYARA SUILAN C. BELFORT 59 F F5559 9 03:05:02 WRUN
219 3141 JEANE MENDES DE MENESES 38 F F3539 48 03:05:33 EQUIPE SEMENTES DO FUTURO
220 2187 IVANISE SANTOS NASCIMENTO 43 F F4044 48 03:05:39 .
221 2280 CRISTIANE MENEZES SANTOS BARRETO 47 F F4549 36 03:06:21 CRISTIANE MENEZES
222 2411 EDJANE MESSIAS DE JESUS 45 F F4549 37 03:06:25 EQUIPE ESTANCIANA DE ATLETISMO
223 2356 JUCYNEIDE DOS SANTOS 39 F F3539 49 03:06:40 .
224 3250 ACASSIA TEOFILO ASSIS NUNES LEITE 41 F F4044 49 03:07:13 JAIME MADUREIRA/ CORREDORES DE
225 3087 JOSEANE AMBROZI 53 F F5054 23 03:07:39 PÉFORMANCE
226 3201 JAQUELINE MENEZES NOGUEIRA 36 F F3539 50 03:09:26 LIVIATEAM
227 2767 EDINEIDE OLIVEIRA DA SILVA 38 F F3539 51 03:09:37 .
228 2079 FABRINA FIGUEIREDO 36 F F3539 52 03:10:01 ZONA ALVO
229 2993 GISELLY SOUZA DE OLIVEIRA 39 F F3539 53 03:10:32 RT ASSESSORIA
230 2162 PATRÍCIA MARINHO FRANÇA 45 F F4549 38 03:11:08 .
231 3008 CAMILA AMORIM MOURA DOS SANTOS 32 F F3034 21 03:11:27 RT ASSESORIA
232 2070 RITA DE CÁSSIA SILVA ARAÚJO 53 F F5054 24 03:12:26 ZONA ALVO
233 2495 MITIE CAROLINA MINORI DE NOVOA 37 F F3539 54 03:12:26 .
234 3277 SHEILLA SANTANA SANTOS 38 F F3539 55 03:12:54 GERALDO RUN CLUB
235 3172 ANGELA DE OLIVEIRA ANDRADE 51 F F5054 25 03:13:13 MOICANA
236 2412 MARIA ELISA DE JESUS MOREIRA CYSNE 53 F F5054 26 03:13:27 PRESIDENTE BOLSONARO - DEUS AC
237 2099 MAGNA 47 F F4549 39 03:13:32 JABUTIANA RUNNERS
238 3269 SANEIDE SILVA 38 F F3539 56 03:13:33 JABUTIANA RUNNERS
239 3244 CINDY SMITH BARRETO SANTOS 36 F F3539 57 03:13:40 WRUN
240 2999 STELA CELESTE SILVA COSTA GALO 48 F F4549 40 03:13:49 PÉFORMANCE
241 2668 NATASHA ALVES DA COSTA 35 F F3539 58 03:14:11 .
242 2716 KÊNIA MOURA TEIXEIRA 42 F F4044 50 03:15:31 LÍVIA TEAM
243 3016 MÔNICA MARIA SOARES DOS SANTOS 52 F F5054 27 03:15:32 GERALDO FILHO CLUB RUM
244 2095 VALDIMIRA BARBOSA DE AZEVEDO MATOS 53 F F5054 28 03:16:04 CLUBE 21 AJU
245 3130 EDILENE ALMEIDA 49 F F4549 41 03:16:04 BRUNO OLIVEIRA
246 3067 VERA MARIA MENEZES MELO 54 F F5054 29 03:16:29 LIVIA TEAM
247 2989 JAQUELINE FIGUEIREDO MENEZES 52 F F5054 30 03:16:34 RT ACESSORIA
248 3356 MARIA NEUZA DE JESUS SANTOS 54 F F5054 31 03:16:46 EDUCA GUARUJÁ
249 3174 DINA MARIA FRAGA 41 F F4044 51 03:16:50 THADEUMELOTEAM
250 2854 SUELLY SALES DE SOUZA 50 F F5054 32 03:19:05 JAIME MADUREIRA
251 3193 CLÁUDIA REGINA BENTES DA COSTA 54 F F5054 33 03:19:05 JAIME MADUREIRA
252 2110 DANGELLY LINS F M DE MELO 39 F F3539 59 03:19:38 JLTEAM
253 2974 CLESIMARY EVANGELISTA MOLINA MARTIN 43 F F4044 52 03:19:43 BRUNO OLIVEIRA
254 3345 PATY - SANDRA PATRICIA PADILHA CUNH 44 F F4044 53 03:19:43 BRUNO OLIVEIRA
255 2100 LICIA GENTIL 46 F F4549 42 03:20:12 DIVAS QUE CORREM ARACAJU
256 3066 ADANAIR ARAGÃO 48 F F4549 43 03:20:43 PERFORMANCE
257 2715 CARMEM LÚCIA DOS SANTOS SOUZA 43 F F4044 54 03:24:27 S3
258 2045 ALINE ROSANE SANTOS SOUZA 39 F F3539 60 03:33:39 GLAUCORUN
259 3074 ANA LUCIA DOS SANTOS SAMPAIO 47 F F4549 44 03:37:12 ASSOCIAÇÃO DE ATLETISMO DE ALA